CW3518 Weather Reports


Display with metric or nautical units.
time (UTC)temp
F
wind
direction
speed
MPH
gust
MPH
rain 1hr
in
rain 24hr
in
rain mn
in
humidity
%
barometer
mb
20210224231027 65 28 15.0 20.0 0.00 0.00 0.00 34 1017.3
20210224230524 65 18 16.0 21.0 0.00 0.00 0.00 33 1017.3
20210224230029 66 10 20.0 21.0 0.00 0.00 0.00 33 1017.3
20210224225528 66 14 13.0 20.0 0.00 0.00 0.00 34 1017.4
20210224225025 66 32 16.0 21.0 0.00 0.00 0.00 34 1017.2
20210224224523 66 27 14.0 22.0 0.00 0.00 0.00 34 1017.3
20210224224024 66 31 18.0 22.0 0.00 0.00 0.00 34 1017.3
20210224223518 66 13 16.0 24.0 0.00 0.00 0.00 34 1017.3
20210224223044 66 5 15.0 24.0 0.00 0.00 0.00 35 1017.3
20210224222745 66 16 14.0 20.0 0.00 0.00 0.00 35 1017.4
20210224222031 66 15 19.0 22.0 0.00 0.00 0.00 34 1017.3
20210224221524 67 25 18.0 24.0 0.00 0.00 0.00 34 1017.3
20210224221031 67 9 13.0 24.0 0.00 0.00 0.00 35 1017.2
20210224220522 66 3 15.0 22.0 0.00 0.00 0.00 35 1017.2
20210224220039 67 18 13.0 22.0 0.00 0.00 0.00 35 1017.2
20210224215524 67 4 18.0 22.0 0.00 0.00 0.00 35 1017.0
20210224215231 67 8 15.0 22.0 0.00 0.00 0.00 36 1017.0
20210224214525 67 10 9.0 22.0 0.00 0.00 0.00 36 1017.0
20210224214029 67 1 14.0 22.0 0.00 0.00 0.00 36 1017.0
20210224213521 66 9 15.0 24.0 0.00 0.00 0.00 37 1017.0
20210224213029 67 21 20.0 25.0 0.00 0.00 0.00 37 1016.8
20210224212640 66 2 16.0 25.0 0.00 0.00 0.00 37 1016.8
20210224212026 67 12 18.0 25.0 0.00 0.00 0.00 37 1016.8
20210224211529 66 4 19.0 25.0 0.00 0.00 0.00 37 1016.8
20210224211022 66 335 17.0 21.0 0.00 0.00 0.00 36 1016.8
20210224210533 67 343 15.0 20.0 0.00 0.00 0.00 37 1016.8
20210224210021 66 356 11.0 20.0 0.00 0.00 0.00 37 1016.8
20210224205518 66 351 17.0 22.0 0.00 0.00 0.00 37 1016.7
20210224205113 66 341 15.0 23.0 0.00 0.00 0.00 37 1016.7
20210224204520 66 358 20.0 26.0 0.00 0.00 0.00 37 1016.5
20210224204020 66 10 20.0 26.0 0.00 0.00 0.00 37 1016.4
20210224203528 66 10 17.0 24.0 0.00 0.00 0.00 37 1016.4
20210224203024 66 354 18.0 24.0 0.00 0.00 0.00 38 1016.3
20210224202607 66 6 14.0 23.0 0.00 0.00 0.00 39 1016.4
20210224202022 66 343 16.0 22.0 0.00 0.00 0.00 38 1016.3
20210224201518 67 350 20.0 22.0 0.00 0.00 0.00 37 1016.3
20210224201028 66 7 16.0 22.0 0.00 0.00 0.00 38 1016.3
20210224200521 66 340 20.0 23.0 0.00 0.00 0.00 38 1016.2
20210224200032 66 339 19.0 31.0 0.00 0.00 0.00 38 1016.2
20210224195527 66 0 15.0 31.0 0.00 0.00 0.00 38 1016.3
20210224195235 65 328 29.0 31.0 0.00 0.00 0.00 41 1016.0
20210224194527 66 327 14.0 21.0 0.00 0.00 0.00 38 1016.4
20210224194022 65 337 15.0 23.0 0.00 0.00 0.00 40 1016.3
20210224193537 65 341 17.0 24.0 0.00 0.00 0.00 40 1016.4
20210224193031 65 359 20.0 27.0 0.00 0.00 0.00 39 1016.5
20210224192607 65 337 18.0 27.0 0.00 0.00 0.00 40 1016.6
20210224192023 65 330 21.0 30.0 0.00 0.00 0.00 40 1016.5
20210224191528 64 350 20.0 30.0 0.00 0.00 0.00 40 1016.5
20210224191029 64 320 12.0 27.0 0.00 0.00 0.00 40 1016.6
20210224190518 65 350 16.0 26.0 0.00 0.00 0.00 41 1016.5
20210224190029 64 342 20.0 26.0 0.00 0.00 0.00 41 1016.5
20210224185517 64 349 21.0 25.0 0.00 0.00 0.00 41 1016.6
20210224185322 64 344 20.0 28.0 0.00 0.00 0.00 41 1016.7
20210224184525 64 336 16.0 28.0 0.00 0.00 0.00 42 1016.7
20210224184020 63 346 12.0 28.0 0.00 0.00 0.00 43 1016.9
20210224183523 64 343 22.0 28.0 0.00 0.00 0.00 43 1016.9
20210224183044 63 354 14.0 28.0 0.00 0.00 0.00 43 1017.0
20210224182612 63 319 21.0 25.0 0.00 0.00 0.00 44 1016.9
20210224182035 63 349 18.0 25.0 0.00 0.00 0.00 43 1017.0
20210224181529 63 327 18.0 24.0 0.00 0.00 0.00 44 1017.0
20210224181024 62 346 15.0 24.0 0.00 0.00 0.00 44 1017.1
20210224180529 62 339 15.0 23.0 0.00 0.00 0.00 44 1017.1
20210224180033 62 332 18.0 25.0 0.00 0.00 0.00 44 1017.1
20210224175523 62 322 21.0 25.0 0.00 0.00 0.00 44 1017.1
20210224175125 62 319 17.0 24.0 0.00 0.00 0.00 45 1017.1
20210224174532 62 326 17.0 26.0 0.00 0.00 0.00 45 1017.1
20210224174025 61 317 19.0 26.0 0.00 0.00 0.00 46 1017.0
20210224173520 61 310 22.0 23.0 0.00 0.00 0.00 46 1016.8
20210224173034 61 354 13.0 23.0 0.00 0.00 0.00 46 1016.9
20210224172535 60 327 17.0 23.0 0.00 0.00 0.00 47 1016.8
20210224172030 60 316 20.0 22.0 0.00 0.00 0.00 48 1016.9
20210224171535 60 319 12.0 22.0 0.00 0.00 0.00 48 1016.8
20210224171019 60 331 18.0 20.0 0.00 0.00 0.00 48 1016.7
20210224170551 59 327 17.0 21.0 0.00 0.00 0.00 49 1016.6
20210224170043 59 342 13.0 24.0 0.00 0.00 0.00 48 1016.7
20210224165531 58 332 21.0 24.0 0.00 0.00 0.00 49 1016.4
20210224165120 59 315 19.0 23.0 0.00 0.00 0.00 48 1016.4
20210224164524 59 314 18.0 22.0 0.00 0.00 0.00 49 1016.3
20210224164021 58 314 14.0 22.0 0.00 0.00 0.00 49 1016.3
20210224163524 58 304 16.0 23.0 0.00 0.00 0.00 50 1016.3
20210224163025 57 310 13.0 23.0 0.00 0.00 0.00 51 1016.2
20210224162545 58 320 20.0 23.0 0.00 0.00 0.00 50 1016.1
20210224162028 57 329 20.0 23.0 0.00 0.00 0.00 50 1016.1
20210224161525 56 314 14.0 23.0 0.00 0.00 0.00 52 1015.9
20210224161028 56 315 12.0 21.0 0.00 0.00 0.00 53 1015.7
20210224160523 56 320 20.0 21.0 0.00 0.00 0.00 52 1015.6
20210224160035 56 304 17.0 20.0 0.00 0.00 0.00 53 1015.6
20210224155523 56 331 15.0 20.0 0.00 0.00 0.00 52 1015.6
20210224155114 56 320 16.0 19.0 0.00 0.00 0.00 54 1015.5
20210224154526 55 320 17.0 20.0 0.00 0.00 0.00 54 1015.4
20210224154021 55 343 16.0 20.0 0.00 0.00 0.00 54 1015.3
20210224153534 55 320 18.0 18.0 0.00 0.00 0.00 55 1015.3
20210224153034 55 331 18.0 18.0 0.00 0.00 0.00 55 1015.2
20210224152545 55 314 12.0 18.0 0.00 0.00 0.00 57 1015.0
20210224152022 55 346 15.0 19.0 0.00 0.00 0.00 56 1015.0
20210224151525 55 305 12.0 19.0 0.00 0.00 0.00 60 1014.9
20210224151040 55 310 17.0 21.0 0.00 0.00 0.00 59 1014.8
20210224150520 55 316 15.0 22.0 0.00 0.00 0.00 61 1014.7
20210224150025 55 314 13.0 22.0 0.00 0.00 0.00 63 1014.6
20210224145521 56 307 20.0 22.0 0.00 0.00 0.00 62 1014.3
20210224145210 57 298 15.0 19.0 0.00 0.00 0.00 64 1014.2
20210224144521 56 298 12.0 15.0 0.00 0.00 0.00 63 1014.2
20210224144020 57 286 11.0 15.0 0.00 0.00 0.00 61 1013.9
20210224143521 56 281 14.0 18.0 0.00 0.00 0.00 61 1013.6
20210224143026 56 267 9.0 19.0 0.00 0.00 0.00 61 1013.5
20210224142625 57 290 11.0 19.0 0.00 0.00 0.00 62 1013.3
20210224142030 57 286 15.0 17.0 0.00 0.00 0.00 64 1013.3
20210224141528 57 284 16.0 17.0 0.00 0.00 0.00 65 1013.2
20210224141029 56 297 9.0 15.0 0.00 0.00 0.00 78 1013.1
20210224140518 55 262 8.0 15.0 0.00 0.00 0.00 82 1012.9
20210224140026 54 253 13.0 15.0 0.00 0.00 0.00 85 1012.7
20210224135522 53 244 11.0 11.0 0.00 0.00 0.00 90 1012.8
20210224135023 52 216 5.0 8.0 0.00 0.00 0.00 91 1012.8
20210224134530 52 244 6.0 8.0 0.00 0.00 0.00 91 1012.7
20210224134025 52 230 7.0 9.0 0.00 0.00 0.00 91 1012.5
20210224133524 52 232 7.0 9.0 0.00 0.00 0.00 91 1012.4
20210224133058 52 225 7.0 12.0 0.00 0.00 0.00 90 1012.2
20210224132647 53 235 8.0 13.0 0.00 0.00 0.00 89 1012.2
20210224132038 53 219 9.0 14.0 0.00 0.00 0.00 88 1012.0
20210224131524 53 214 12.0 14.0 0.00 0.00 0.00 88 1011.8
20210224131033 54 0 0.0 13.0 0.00 0.00 0.00 88 1011.6
20210224130528 54 219 11.0 13.0 0.00 0.00 0.00 88 1011.5
20210224130032 53 215 11.0 12.0 0.00 0.00 0.00 89 1011.5
20210224125610 53 207 10.0 10.0 0.00 0.00 0.00 90 1011.5
20210224125325 53 198 9.0 10.0 0.00 0.00 0.00 91 1011.5
20210224124533 53 193 8.0 9.0 0.00 0.00 0.00 91 1011.5
20210224124034 53 188 8.0 10.0 0.00 0.00 0.00 92 1011.4
20210224123531 53 179 7.0 10.0 0.00 0.00 0.00 91 1011.3
20210224123054 53 181 8.0 12.0 0.00 0.00 0.00 91 1011.2
20210224122651 53 180 9.0 12.0 0.00 0.00 0.00 90 1011.1
20210224122036 53 172 11.0 12.0 0.00 0.00 0.00 90 1011.1
20210224121523 53 167 10.0 11.0 0.00 0.00 0.00 90 1011.1
20210224121021 53 168 11.0 11.0 0.00 0.00 0.00 90 1011.1
20210224120523 53 165 10.0 10.0 0.00 0.00 0.00 89 1011.1
20210224120023 53 171 7.0 8.0 0.00 0.00 0.00 90 1011.1
20210224115530 53 183 6.0 9.0 0.00 0.00 0.00 89 1011.1
20210224115259 53 180 6.0 10.0 0.00 0.00 0.00 89 1011.0
20210224114535 54 189 9.0 11.0 0.00 0.00 0.00 88 1010.9
20210224114022 54 195 11.0 11.0 0.00 0.00 0.00 88 1011.0
20210224113529 55 194 9.0 11.0 0.00 0.00 0.00 87 1010.9
20210224113020 55 195 9.0 10.0 0.00 0.00 0.00 86 1010.9
20210224112533 55 197 7.0 8.0 0.00 0.00 0.00 86 1011.0
20210224112025 55 192 5.0 9.0 0.00 0.00 0.00 86 1011.0
20210224111524 55 202 8.0 9.0 0.00 0.00 0.00 85 1010.9
20210224111019 55 186 6.0 11.0 0.00 0.00 0.00 85 1010.8
20210224110523 56 191 5.0 11.0 0.00 0.00 0.00 84 1010.8
20210224110030 56 206 10.0 13.0 0.00 0.00 0.00 84 1010.7
20210224105517 56 206 10.0 14.0 0.00 0.00 0.00 84 1010.6
20210224105116 56 202 13.0 14.0 0.00 0.00 0.00 84 1010.4
20210224104519 56 205 10.0 14.0 0.00 0.00 0.00 83 1010.3
20210224104024 56 209 9.0 14.0 0.00 0.00 0.00 82 1010.3
20210224103521 56 206 11.0 14.0 0.00 0.00 0.00 82 1010.1
20210224103026 56 204 13.0 15.0 0.00 0.00 0.00 82 1009.9
20210224102651 56 199 12.0 17.0 0.00 0.00 0.00 81 1009.9
20210224102031 57 206 13.0 17.0 0.00 0.00 0.00 80 1009.9
20210224101524 57 207 13.0 16.0 0.00 0.00 0.00 80 1009.9
20210224101022 57 201 13.0 18.0 0.00 0.00 0.00 80 1009.8
20210224100521 57 195 14.0 18.0 0.00 0.00 0.00 79 1009.8
20210224100031 57 202 14.0 18.0 0.00 0.00 0.00 79 1009.8
20210224095525 57 205 13.0 19.0 0.00 0.00 0.00 78 1009.7
20210224095141 57 198 13.0 21.0 0.00 0.00 0.00 78 1009.7
20210224094518 57 199 17.0 21.0 0.00 0.00 0.00 78 1009.5
20210224094023 57 204 16.0 20.0 0.00 0.00 0.00 77 1009.4
20210224093522 58 201 16.0 21.0 0.00 0.00 0.00 77 1009.5
20210224093032 58 196 15.0 21.0 0.00 0.00 0.00 77 1009.4
20210224092610 58 204 19.0 20.0 0.00 0.00 0.00 76 1009.4
20210224092036 58 203 13.0 20.0 0.00 0.00 0.00 76 1009.6
20210224091525 58 203 16.0 20.0 0.00 0.00 0.00 76 1009.4
20210224091022 58 202 15.0 20.0 0.00 0.00 0.00 76 1009.6
20210224090523 58 204 17.0 20.0 0.00 0.00 0.00 76 1009.7
20210224090032 58 197 19.0 19.0 0.00 0.00 0.00 75 1009.8
20210224085520 58 200 16.0 18.0 0.00 0.00 0.00 75 1009.9
20210224085218 58 201 15.0 19.0 0.00 0.00 0.00 75 1010.0
20210224084524 59 200 15.0 19.0 0.00 0.00 0.00 74 1010.1
20210224084030 59 202 16.0 18.0 0.00 0.00 0.00 74 1010.2
20210224083520 59 205 15.0 18.0 0.00 0.00 0.00 73 1010.2
20210224083027 59 201 14.0 18.0 0.00 0.00 0.00 73 1010.2
20210224082535 59 195 15.0 17.0 0.00 0.00 0.00 72 1010.2
20210224082028 59 193 17.0 19.0 0.00 0.00 0.00 72 1010.3
20210224081531 60 200 16.0 19.0 0.00 0.00 0.00 71 1010.4
20210224081025 60 204 15.0 17.0 0.00 0.00 0.00 71 1010.5
20210224080518 60 193 13.0 17.0 0.00 0.00 0.00 70 1010.5
20210224080025 60 200 14.0 20.0 0.00 0.00 0.00 70 1010.6
20210224075522 61 199 14.0 20.0 0.00 0.00 0.00 69 1010.6
20210224075242 61 205 13.0 21.0 0.00 0.00 0.00 68 1010.5
20210224074520 61 205 17.0 21.0 0.00 0.00 0.00 68 1010.3
20210224074022 61 202 16.0 26.0 0.00 0.00 0.00 67 1010.1
20210224073525 61 213 17.0 27.0 0.00 0.00 0.00 67 1009.9
20210224073027 62 196 20.0 27.0 0.00 0.00 0.00 66 1009.8
20210224072551 62 197 24.0 27.0 0.00 0.00 0.00 66 1009.7
20210224072030 62 204 19.0 27.0 0.00 0.00 0.00 65 1009.7
20210224071526 62 198 27.0 28.0 0.00 0.00 0.00 65 1009.6
20210224071032 62 194 19.0 28.0 0.00 0.00 0.00 65 1009.7
20210224070525 63 195 21.0 25.0 0.00 0.00 0.00 64 1009.7
20210224070023 62 193 12.0 24.0 0.00 0.00 0.00 65 1009.8
20210224065535 62 195 18.0 24.0 0.00 0.00 0.00 65 1009.7
20210224065329 63 196 18.0 24.0 0.00 0.00 0.00 64 1009.8
20210224064523 62 207 21.0 24.0 0.00 0.00 0.00 64 1009.7
20210224064022 63 205 20.0 24.0 0.00 0.00 0.00 64 1009.8
20210224063520 63 202 18.0 26.0 0.00 0.00 0.00 64 1009.8
20210224063028 63 204 24.0 26.0 0.00 0.00 0.00 63 1009.7
20210224062612 63 206 16.0 25.0 0.00 0.00 0.00 64 1009.8
20210224062027 63 205 22.0 28.0 0.00 0.00 0.00 63 1009.8
20210224061530 64 208 17.0 28.0 0.00 0.00 0.00 63 1009.8
20210224061026 64 207 22.0 28.0 0.00 0.00 0.00 62 1009.7
20210224060522 64 210 24.0 28.0 0.00 0.00 0.00 62 1009.6
20210224060024 64 203 28.0 28.0 0.00 0.00 0.00 62 1009.7
20210224055519 64 205 21.0 26.0 0.00 0.00 0.00 62 1009.7
20210224055130 64 208 25.0 26.0 0.00 0.00 0.00 61 1009.7
20210224054519 65 205 21.0 27.0 0.00 0.00 0.00 61 1009.8
20210224054023 65 207 19.0 27.0 0.00 0.00 0.00 61 1009.7
20210224053524 65 213 23.0 26.0 0.00 0.00 0.00 60 1009.7
20210224053025 65 206 23.0 26.0 0.00 0.00 0.00 60 1009.8
20210224052634 66 213 24.0 27.0 0.00 0.00 0.00 59 1009.8
20210224052026 66 206 22.0 27.0 0.00 0.00 0.00 59 1009.9
20210224051526 66 206 22.0 30.0 0.00 0.00 0.00 58 1009.8
20210224051028 66 202 22.0 30.0 0.00 0.00 0.00 58 1009.9
20210224050522 66 213 23.0 28.0 0.00 0.00 0.00 58 1010.0
20210224050028 66 213 22.0 28.0 0.00 0.00 0.00 58 1009.9
20210224045539 66 206 27.0 28.0 0.00 0.00 0.00 57 1009.9
20210224045059 66 202 27.0 28.0 0.00 0.00 0.00 58 1010.0
20210224044526 66 210 22.0 28.0 0.00 0.00 0.00 59 1010.1
20210224044022 66 202 18.0 23.0 0.00 0.00 0.00 60 1010.2
20210224043527 66 207 19.0 26.0 0.00 0.00 0.00 60 1010.1
20210224043023 66 202 18.0 26.0 0.00 0.00 0.00 61 1010.1
20210224042534 66 206 20.0 22.0 0.00 0.00 0.00 61 1010.1
20210224042027 65 203 17.0 22.0 0.00 0.00 0.00 61 1010.1
20210224041536 65 199 16.0 22.0 0.00 0.00 0.00 62 1010.1
20210224041025 65 199 17.0 20.0 0.00 0.00 0.00 63 1010.1
20210224040526 65 203 17.0 23.0 0.00 0.00 0.00 63 1010.1
20210224040037 65 197 15.0 23.0 0.00 0.00 0.00 63 1010.0
20210224035522 65 199 17.0 21.0 0.00 0.00 0.00 63 1010.0
20210224035053 65 196 15.0 21.0 0.00 0.00 0.00 63 1010.0
20210224034529 65 198 15.0 20.0 0.00 0.00 0.00 63 1009.9
20210224034031 65 197 17.0 23.0 0.00 0.00 0.00 63 1009.9
20210224033524 66 198 20.0 23.0 0.00 0.00 0.00 62 1009.9
20210224033027 66 188 12.0 23.0 0.00 0.00 0.00 62 1009.9
20210224032620 66 185 16.0 23.0 0.00 0.00 0.00 62 1009.8
20210224032025 66 193 16.0 25.0 0.00 0.00 0.00 61 1009.7
20210224031525 66 191 16.0 25.0 0.00 0.00 0.00 61 1009.7
20210224031022 66 188 19.0 22.0 0.00 0.00 0.00 61 1009.6
20210224030521 67 200 16.0 24.0 0.00 0.00 0.00 61 1009.6
20210224030026 67 196 21.0 24.0 0.00 0.00 0.00 60 1009.5
20210224025525 67 192 17.0 22.0 0.00 0.00 0.00 60 1009.6
20210224025157 67 186 13.0 21.0 0.00 0.00 0.00 60 1009.5
20210224024524 67 184 14.0 22.0 0.00 0.00 0.00 60 1009.6
20210224024028 67 185 16.0 22.0 0.00 0.00 0.00 60 1009.6
20210224023527 68 200 21.0 22.0 0.00 0.00 0.00 59 1009.6
20210224023030 68 195 20.0 24.0 0.00 0.00 0.00 59 1009.6
20210224022607 68 185 19.0 25.0 0.00 0.00 0.00 58 1009.4
20210224022036 68 176 16.0 25.0 0.00 0.00 0.00 59 1009.3
20210224021529 68 188 19.0 24.0 0.00 0.00 0.00 58 1009.2
20210224021025 68 175 17.0 20.0 0.00 0.00 0.00 58 1009.2
20210224020519 68 179 14.0 23.0 0.00 0.00 0.00 58 1009.3
20210224020027 68 178 18.0 23.0 0.00 0.00 0.00 57 1009.2
20210224015524 69 169 19.0 24.0 0.00 0.00 0.00 57 1009.1
20210224015023 69 168 20.0 24.0 0.00 0.00 0.00 57 1009.0
20210224014523 69 170 22.0 25.0 0.00 0.00 0.00 56 1009.1
20210224014024 69 171 22.0 27.0 0.00 0.00 0.00 55 1009.1
20210224013519 69 170 24.0 27.0 0.00 0.00 0.00 55 1009.0
20210224013037 69 168 19.0 24.0 0.00 0.00 0.00 54 1009.0
20210224012640 70 173 24.0 26.0 0.00 0.00 0.00 54 1008.9
20210224012023 70 165 19.0 26.0 0.00 0.00 0.00 53 1009.0
20210224011531 70 170 21.0 22.0 0.00 0.00 0.00 52 1008.9
20210224011029 70 168 18.0 22.0 0.00 0.00 0.00 50 1008.9
20210224010548 71 171 15.0 22.0 0.00 0.00 0.00 49 1009.0
20210224010043 71 173 17.0 23.0 0.00 0.00 0.00 48 1008.9
20210224005521 71 167 17.0 23.0 0.00 0.00 0.00 46 1009.0
20210224005131 71 180 18.0 20.0 0.00 0.00 0.00 44 1009.1
20210224004527 72 165 13.0 17.0 0.00 0.00 0.00 38 1009.0
20210224004027 73 171 15.0 17.0 0.00 0.00 0.00 35 1008.9
20210224003527 73 180 11.0 17.0 0.00 0.00 0.00 34 1008.9
20210224003027 74 192 14.0 17.0 0.00 0.00 0.00 33 1008.8
20210224002614 74 202 17.0 18.0 0.00 0.00 0.00 33 1008.8
20210224002023 75 186 13.0 19.0 0.00 0.00 0.00 32 1008.8
20210224001547 75 202 17.0 21.0 0.00 0.00 0.00 31 1008.8
20210224001026 75 195 15.0 21.0 0.00 0.00 0.00 31 1008.8
20210224000532 76 194 17.0 21.0 0.00 0.00 0.00 30 1008.8
20210224000028 76 195 16.0 24.0 0.00 0.00 0.00 29 1008.9
20210223235521 77 199 19.0 25.0 0.00 0.00 0.00 29 1008.8
20210223235024 77 202 19.0 25.0 0.00 0.00 0.00 29 1008.7
20210223234526 77 201 17.0 28.0 0.00 0.00 0.00 29 1008.9
20210223234037 77 201 28.0 28.0 0.00 0.00 0.00 29 1008.7
20210223233525 77 200 24.0 27.0 0.00 0.00 0.00 29 1008.9
20210223233025 78 199 27.0 27.0 0.00 0.00 0.00 29 1008.8
20210223232638 78 196 23.0 27.0 0.00 0.00 0.00 29 1008.9
20210223232030 78 198 24.0 27.0 0.00 0.00 0.00 29 1008.9
20210223231528 78 202 20.0 31.0 0.00 0.00 0.00 29 1008.9